Time,TemperatureF,DewpointF,PressureIn,WindDirection,WindDirectionDegrees,WindSpeedMPH,WindSpeedGustMPH,Humidity,HourlyPrecipIn,Conditions,Clouds,dailyrainin,SolarRadiationWatts/m^2,SoftwareType,DateUTC
2013-01-14 04:00:00,2.0,-2.0,-100.00,North,360,0.0,1.0,84,-99.99,,,0.00,0.000000,,2013-01-14 11:00:00,
2013-01-14 04:53:00,2.0,-2.0,-100.00,North,360,0.0,1.0,84,-99.99,,,0.00,0.000000,,2013-01-14 11:53:00,
2013-01-14 05:00:00,1.0,-1.0,-100.00,North,360,0.0,1.0,90,-99.99,,,0.00,0.000000,,2013-01-14 12:00:00,
2013-01-14 05:53:00,1.0,-1.0,-100.00,North,360,0.0,1.0,90,-99.99,,,0.00,0.000000,,2013-01-14 12:53:00,
2013-01-14 06:00:00,1.0,0.0,-100.00,North,360,0.0,1.0,93,-99.99,,,0.00,0.000000,,2013-01-14 13:00:00,
2013-01-14 06:53:00,1.0,0.0,-100.00,North,360,0.0,1.0,93,-99.99,,,0.00,0.000000,,2013-01-14 13:53:00,
2013-01-14 07:00:00,0.0,-2.0,-100.00,North,360,0.0,1.0,92,-99.99,,,0.00,0.000000,,2013-01-14 14:00:00,
2013-01-14 07:53:00,0.0,-2.0,-100.00,North,360,0.0,1.0,92,-99.99,,,0.00,0.000000,,2013-01-14 14:53:00,
2013-01-14 08:00:00,1.0,-1.0,-100.00,North,360,0.0,1.0,91,-99.99,,,-99.99,4.600000,,2013-01-14 15:00:00,
2013-01-14 08:53:00,1.0,-1.0,-100.00,North,360,0.0,1.0,91,-99.99,,,-99.99,4.600000,,2013-01-14 15:53:00,
2013-01-14 09:00:00,11.0,9.0,-100.00,North,360,1.0,5.0,93,-99.99,,,0.00,35.700001,,2013-01-14 16:00:00,
2013-01-14 09:53:00,11.0,9.0,-100.00,North,360,1.0,5.0,93,-99.99,,,0.00,35.700001,,2013-01-14 16:53:00,
2013-01-14 10:00:00,13.0,8.0,-100.00,North,360,2.0,8.0,81,-99.99,,,0.00,72.300003,,2013-01-14 17:00:00,
2013-01-14 10:53:00,13.0,8.0,-100.00,North,360,2.0,8.0,81,-99.99,,,0.00,72.300003,,2013-01-14 17:53:00,
2013-01-14 11:00:00,15.0,7.0,-100.00,North,360,2.0,8.0,71,-99.99,,,0.00,191.100006,,2013-01-14 18:00:00,
2013-01-14 11:53:00,15.0,7.0,-100.00,North,360,2.0,8.0,71,-99.99,,,0.00,191.100006,,2013-01-14 18:53:00,
2013-01-14 12:00:00,17.0,7.0,-100.00,North,360,3.0,9.0,67,-99.99,,,0.00,300.100006,,2013-01-14 19:00:00,
2013-01-14 12:53:00,17.0,7.0,-100.00,North,360,3.0,9.0,67,-99.99,,,0.00,300.100006,,2013-01-14 19:53:00,
2013-01-14 14:00:00,19.0,7.0,-100.00,North,360,3.0,8.0,59,-99.99,,,0.00,218.000000,,2013-01-14 21:00:00,
2013-01-14 14:53:00,19.0,7.0,-100.00,North,360,3.0,8.0,59,-99.99,,,0.00,218.000000,,2013-01-14 21:53:00,
2013-01-14 15:00:00,18.0,6.0,-100.00,North,360,3.0,7.0,58,-99.99,,,0.00,291.200012,,2013-01-14 22:00:00,
2013-01-14 15:53:00,18.0,6.0,-100.00,North,360,3.0,7.0,58,-99.99,,,0.00,291.200012,,2013-01-14 22:53:00,
2013-01-14 16:00:00,16.0,4.0,-100.00,North,-999,-999.0,-999.0,58,-99.99,,,-99.99,,,2013-01-14 23:00:00,
2013-01-14 16:53:00,16.0,4.0,-100.00,North,-999,-999.0,-999.0,58,-99.99,,,-99.99,,,2013-01-14 23:53:00,
2013-01-14 17:00:00,14.0,1.0,-100.00,North,360,3.0,9.0,55,-99.99,,,-99.99,74.199997,,2013-01-15 00:00:00,
2013-01-14 17:53:00,14.0,1.0,-100.00,North,360,3.0,9.0,55,-99.99,,,-99.99,74.199997,,2013-01-15 00:53:00,
2013-01-14 18:00:00,11.0,-2.0,-100.00,North,360,1.0,6.0,56,-99.99,,,0.00,4.600000,,2013-01-15 01:00:00,
2013-01-14 18:52:00,11.0,-2.0,-100.00,North,360,1.0,6.0,56,-99.99,,,0.00,4.600000,,2013-01-15 01:52:00,
2013-01-14 19:00:00,10.0,-1.0,-100.00,North,360,1.0,3.0,60,-99.99,,,0.00,0.000000,,2013-01-15 02:00:00,
2013-01-14 19:53:00,10.0,-1.0,-100.00,North,360,1.0,3.0,60,-99.99,,,0.00,0.000000,,2013-01-15 02:53:00,
2013-01-14 20:00:00,7.0,-5.0,-100.00,North,360,1.0,4.0,57,-99.99,,,-99.99,0.000000,,2013-01-15 03:00:00,
2013-01-14 20:53:00,7.0,-5.0,-100.00,North,360,1.0,4.0,57,-99.99,,,-99.99,0.000000,,2013-01-15 03:53:00,
2013-01-14 21:00:00,7.0,-5.0,-100.00,North,360,1.0,3.0,58,-99.99,,,-99.99,0.000000,,2013-01-15 04:00:00,
2013-01-14 21:52:00,7.0,-5.0,-100.00,North,360,1.0,3.0,58,-99.99,,,-99.99,0.000000,,2013-01-15 04:52:00,
2013-01-14 22:00:00,7.0,-6.0,-100.00,North,360,2.0,8.0,55,-99.99,,,-99.99,0.000000,,2013-01-15 05:00:00,
2013-01-14 22:52:00,7.0,-6.0,-100.00,North,360,2.0,8.0,55,-99.99,,,-99.99,0.000000,,2013-01-15 05:52:00,
2013-01-14 23:00:00,7.0,-6.0,-100.00,North,360,3.0,8.0,53,-99.99,,,0.00,0.000000,,2013-01-15 06:00:00,
2013-01-14 23:53:00,7.0,-6.0,-100.00,North,360,3.0,8.0,53,-99.99,,,0.00,0.000000,,2013-01-15 06:53:00,